Time;durP1;ratioP1;P1;durP2;ratioP2;P2;SDS_P1;SDS_P2;PMS_P1;PMS_P2;Temp;Humidity;BMP_temperature;BMP_pressure;BME280_temperature;BME280_humidity;BME280_pressure;Samples;Min_cycle;Max_cycle;Signal;HPM_P1;HPM_P2
2022/03/30 00:01:05;;;;;;;;;;;;;;;14.16;36.34;98446.47;5226919;27;33901;-92
2022/03/30 00:03:34;;;;;;;;;;;;;;;14.14;35.86;98449.16;5226408;27;33942;-92
2022/03/30 00:06:03;;;;;;;;;;;;;;;14.14;36.67;98446.56;5228011;27;34110;-93
2022/03/30 00:08:33;;;;;;;;;;;;;;;14.00;36.72;98441.16;5228517;27;34342;-92
2022/03/30 00:11:02;;;;;;;;;;;;;;;14.00;36.30;98444.59;5232149;27;34428;-92
2022/03/30 00:13:30;;;;;;;;;;;;;;;13.77;36.88;98450.03;5226293;27;34629;-93
2022/03/30 00:15:59;;;;;;;;;;;;;;;13.90;36.67;98445.94;5226662;27;34245;-91
2022/03/30 00:18:27;;;;;;;;;;;;;;;14.03;36.67;98441.84;5224476;27;32710;-93
2022/03/30 00:20:56;;;;;;;;;;;;;;;13.98;36.75;98446.41;5226422;27;34066;-92
2022/03/30 00:23:24;;;;;;;;;;;;;;;13.94;36.62;98444.91;5231869;27;33784;-92
2022/03/30 00:25:54;;;;;;;;;;;;;;;14.00;36.10;98448.97;5229096;27;33414;-92
2022/03/30 00:28:23;;;;;;;;;;;;;;;14.04;35.98;98438.31;5226438;27;34345;-92
2022/03/30 00:30:52;;;;;;;;;;;;;;;14.11;35.88;98432.81;5227780;27;33543;-91
2022/03/30 00:33:20;;;;;;;;;;;;;;;14.19;35.32;98433.28;5226291;27;32906;-91
2022/03/30 00:35:49;;;;;;;;;;;;;;;14.37;35.42;98429.78;5231657;27;33399;-92
2022/03/30 00:38:18;;;;;;;;;;;;;;;14.42;34.47;98430.41;5227190;27;34569;-91
2022/03/30 00:40:46;;;;;;;;;;;;;;;14.64;34.27;98429.38;5210819;27;33396;-91
2022/03/30 00:43:16;;;;;;;;;;;;;;;14.50;34.80;98417.84;5225351;27;34720;-92
2022/03/30 00:45:44;;;;;;;;;;;;;;;14.58;34.74;98425.31;5227707;27;32981;-92
2022/03/30 00:48:13;;;;;;;;;;;;;;;14.58;34.59;98420.09;5233467;27;33793;-92
2022/03/30 00:50:42;;;;;;;;;;;;;;;14.49;34.74;98416.13;5226904;27;33913;-91
2022/03/30 00:53:10;;;;;;;;;;;;;;;14.33;34.88;98414.34;5227727;27;33727;-91
2022/03/30 00:55:39;;;;;;;;;;;;;;;14.49;34.88;98420.50;5228429;27;33083;-92
2022/03/30 00:58:08;;;;;;;;;;;;;;;14.63;34.33;98419.88;5233902;27;33832;-91
2022/03/30 01:00:53;;;;;;;;;;;;;;;14.54;34.51;98418.53;5228194;27;34287;-91
2022/03/30 01:03:25;;;;;;;;;;;;;;;14.24;35.19;98416.50;5227700;27;35013;-92
2022/03/30 01:05:54;;;;;;;;;;;;;;;14.29;35.42;98405.84;5227853;27;32579;-91
2022/03/30 01:08:23;;;;;;;;;;;;;;;14.05;35.85;98413.09;5228572;27;33992;-91
2022/03/30 01:10:51;;;;;;;;;;;;;;;14.19;35.52;98415.03;5228258;27;34785;-91
2022/03/30 01:13:20;;;;;;;;;;;;;;;14.19;35.46;98415.87;5233572;27;34234;-91
2022/03/30 01:15:49;;;;;;;;;;;;;;;14.21;35.55;98411.44;5228078;27;34050;-91
2022/03/30 01:18:17;;;;;;;;;;;;;;;14.17;36.09;98409.03;5228986;27;33795;-91
2022/03/30 01:20:51;;;;;;;;;;;;;;;14.35;36.07;98404.69;5227629;27;32928;-91
2022/03/30 01:23:19;;;;;;;;;;;;;;;14.25;36.59;98404.28;5228445;27;33253;-92
2022/03/30 01:25:48;;;;;;;;;;;;;;;14.22;36.80;98407.91;5234418;27;33741;-92
2022/03/30 01:28:18;;;;;;;;;;;;;;;14.46;35.92;98407.63;5234033;27;34341;-92
2022/03/30 01:33:34;;;;;;;;;;;;;;;14.33;36.59;98393.47;5228286;27;34122;-92
2022/03/30 01:36:04;;;;;;;;;;;;;;;14.33;36.40;98389.12;5228392;27;34124;-92
2022/03/30 01:38:33;;;;;;;;;;;;;;;13.97;37.72;98395.19;5228103;27;33721;-89
2022/03/30 01:41:01;;;;;;;;;;;;;;;13.99;37.54;98385.56;5233852;27;34274;-89
2022/03/30 01:43:29;;;;;;;;;;;;;;;13.96;37.60;98384.84;5228781;27;33371;-89
2022/03/30 01:45:58;;;;;;;;;;;;;;;13.93;37.88;98380.63;5228505;27;33331;-89
2022/03/30 01:48:26;;;;;;;;;;;;;;;13.94;37.61;98382.31;5228053;27;33778;-91
2022/03/30 01:50:55;;;;;;;;;;;;;;;13.90;37.61;98380.78;5228044;27;34317;-91
2022/03/30 01:53:28;;;;;;;;;;;;;;;14.03;37.81;98374.03;5233409;27;33865;-91
2022/03/30 01:55:56;;;;;;;;;;;;;;;14.03;37.79;98375.81;5233519;27;33525;-92
2022/03/30 01:58:25;;;;;;;;;;;;;;;14.06;37.20;98376.50;5228571;27;34247;-91
2022/03/30 02:00:53;;;;;;;;;;;;;;;13.95;37.57;98376.19;5228542;27;34127;-91
2022/03/30 02:03:22;;;;;;;;;;;;;;;14.01;38.13;98367.19;5228612;27;34302;-91
2022/03/30 02:05:51;;;;;;;;;;;;;;;14.03;37.45;98361.00;5227509;27;32454;-91
2022/03/30 02:08:19;;;;;;;;;;;;;;;14.00;37.84;98363.75;5234078;27;34971;-91
2022/03/30 02:10:49;;;;;;;;;;;;;;;13.83;38.19;98366.34;5228173;27;34650;-91
2022/03/30 02:13:17;;;;;;;;;;;;;;;13.62;38.41;98358.59;5228610;27;33986;-91
2022/03/30 02:15:46;;;;;;;;;;;;;;;13.48;39.12;98353.19;5230382;27;33555;-91
2022/03/30 02:18:14;;;;;;;;;;;;;;;13.64;38.52;98355.94;5228155;27;34118;-91
2022/03/30 02:20:43;;;;;;;;;;;;;;;13.64;38.96;98348.94;5233829;27;34711;-91
2022/03/30 02:23:11;;;;;;;;;;;;;;;13.58;39.36;98354.47;5228294;27;33867;-91
2022/03/30 02:25:39;;;;;;;;;;;;;;;13.59;39.30;98350.94;5227919;27;34006;-91
2022/03/30 02:28:09;;;;;;;;;;;;;;;13.27;39.71;98360.25;5228005;27;34284;-91
2022/03/30 02:30:38;;;;;;;;;;;;;;;13.29;40.34;98361.03;5227528;27;34657;-91
2022/03/30 02:33:06;;;;;;;;;;;;;;;13.28;40.33;98361.91;5233711;27;34114;-91
2022/03/30 02:35:38;;;;;;;;;;;;;;;13.28;40.34;98361.09;5227781;27;33298;-91
2022/03/30 02:38:06;;;;;;;;;;;;;;;13.19;40.47;98364.91;5226328;27;33356;-91
2022/03/30 02:40:35;;;;;;;;;;;;;;;13.35;40.10;98365.09;5229189;27;33360;-91
2022/03/30 02:43:03;;;;;;;;;;;;;;;13.05;40.99;98362.06;5227136;27;33999;-91
2022/03/30 02:45:34;;;;;;;;;;;;;;;13.02;41.09;98368.25;5232329;27;33973;-91
2022/03/30 02:48:28;;;;;;;;;;;;;;;13.12;40.80;98361.75;5233277;27;34062;-91
2022/03/30 02:50:58;;;;;;;;;;;;;;;13.14;41.06;98361.66;5228152;27;33954;-92
2022/03/30 02:53:26;;;;;;;;;;;;;;;13.20;40.99;98362.25;5228270;27;33312;-91
2022/03/30 02:55:56;;;;;;;;;;;;;;;13.41;40.49;98362.22;5227621;27;33457;-91
2022/03/30 02:58:24;;;;;;;;;;;;;;;13.11;41.14;98361.81;5227627;27;33987;-92
2022/03/30 03:00:54;;;;;;;;;;;;;;;13.09;41.63;98366.25;5233899;27;34803;-91
2022/03/30 03:03:23;;;;;;;;;;;;;;;13.11;41.37;98369.63;5233126;27;34052;-91
2022/03/30 03:05:52;;;;;;;;;;;;;;;12.99;41.89;98358.81;5227461;27;33046;-92
2022/03/30 03:08:20;;;;;;;;;;;;;;;13.10;41.69;98360.13;5227777;27;35086;-91
2022/03/30 03:10:50;;;;;;;;;;;;;;;13.03;42.08;98367.38;5228920;27;34359;-91
2022/03/30 03:13:18;;;;;;;;;;;;;;;12.98;42.11;98354.56;5227714;27;33851;-92
2022/03/30 03:15:47;;;;;;;;;;;;;;;13.11;42.26;98365.25;5233280;27;33698;-91
2022/03/30 03:18:21;;;;;;;;;;;;;;;12.96;42.33;98371.16;5227948;27;33951;-91
2022/03/30 03:20:49;;;;;;;;;;;;;;;12.86;42.63;98375.06;5227599;27;34041;-91
2022/03/30 03:23:18;;;;;;;;;;;;;;;13.03;42.09;98363.00;5220580;27;34240;-92
2022/03/30 03:25:47;;;;;;;;;;;;;;;12.77;42.73;98369.34;5227374;27;34030;-91
2022/03/30 03:28:15;;;;;;;;;;;;;;;12.82;42.82;98366.53;5233109;27;33816;-91
2022/03/30 03:30:44;;;;;;;;;;;;;;;12.90;42.95;98356.66;5227498;27;34077;-91
2022/03/30 03:33:12;;;;;;;;;;;;;;;12.70;43.61;98360.09;5227812;27;33875;-91
2022/03/30 03:35:42;;;;;;;;;;;;;;;12.54;43.70;98359.94;5227894;27;33330;-92
2022/03/30 03:38:11;;;;;;;;;;;;;;;12.53;43.88;98362.59;5227417;27;34199;-91
2022/03/30 03:40:40;;;;;;;;;;;;;;;12.48;44.13;98361.94;5233637;27;34920;-92
2022/03/30 03:43:09;;;;;;;;;;;;;;;12.50;43.83;98358.38;5227992;27;34635;-92
2022/03/30 03:45:38;;;;;;;;;;;;;;;12.24;44.44;98359.44;5227056;27;32463;-91
2022/03/30 03:48:07;;;;;;;;;;;;;;;12.02;45.08;98354.28;5228139;27;34260;-91
2022/03/30 03:50:35;;;;;;;;;;;;;;;11.69;46.09;98353.81;5227803;27;34761;-91
2022/03/30 03:53:05;;;;;;;;;;;;;;;12.32;44.62;98360.00;5229544;27;33835;-92
2022/03/30 03:55:36;;;;;;;;;;;;;;;12.10;44.64;98351.38;5233348;27;32924;-91
2022/03/30 03:58:07;;;;;;;;;;;;;;;12.06;44.26;98345.47;5226949;27;34830;-91
2022/03/30 04:00:36;;;;;;;;;;;;;;;12.16;43.96;98345.94;5227892;27;34040;-91
2022/03/30 04:03:05;;;;;;;;;;;;;;;11.90;44.07;98347.81;5227971;27;34864;-92
2022/03/30 04:05:34;;;;;;;;;;;;;;;11.91;43.84;98349.53;5228562;27;33364;-90
2022/03/30 04:08:02;;;;;;;;;;;;;;;12.01;43.49;98347.41;5234451;27;34880;-91
2022/03/30 04:10:32;;;;;;;;;;;;;;;11.68;44.46;98341.75;5228594;27;34907;-90
2022/03/30 04:13:00;;;;;;;;;;;;;;;11.61;44.74;98340.31;5228299;27;34734;-91
2022/03/30 04:15:28;;;;;;;;;;;;;;;11.66;44.55;98339.22;5228715;27;33351;-91
2022/03/30 04:17:57;;;;;;;;;;;;;;;11.61;44.86;98337.72;5228563;27;34880;-91
2022/03/30 04:20:26;;;;;;;;;;;;;;;11.54;45.14;98343.12;5234018;27;34148;-91
2022/03/30 04:22:54;;;;;;;;;;;;;;;11.56;45.30;98340.47;5228327;27;35095;-92
2022/03/30 04:25:23;;;;;;;;;;;;;;;11.58;45.35;98345.63;5229623;27;33691;-91
2022/03/30 04:27:53;;;;;;;;;;;;;;;11.47;45.54;98346.03;5228434;27;34847;-91
2022/03/30 04:30:22;;;;;;;;;;;;;;;11.39;45.73;98346.31;5229337;27;36137;-92
2022/03/30 04:32:51;;;;;;;;;;;;;;;11.27;45.94;98351.97;5234055;27;33947;-91
2022/03/30 04:35:24;;;;;;;;;;;;;;;11.38;45.25;98351.56;5231476;27;33840;-91
2022/03/30 04:37:54;;;;;;;;;;;;;;;11.39;45.09;98356.72;5228282;27;34483;-91
2022/03/30 04:40:22;;;;;;;;;;;;;;;11.20;45.47;98350.50;5228282;27;34229;-91
2022/03/30 04:42:52;;;;;;;;;;;;;;;11.23;45.35;98355.59;5229590;27;34883;-91
2022/03/30 04:45:21;;;;;;;;;;;;;;;11.28;45.30;98359.72;5228765;27;33644;-91
2022/03/30 04:47:51;;;;;;;;;;;;;;;11.08;45.72;98365.62;5234204;27;33710;-93
2022/03/30 04:50:26;;;;;;;;;;;;;;;11.17;45.48;98355.81;5232067;27;35042;-91
2022/03/30 04:52:54;;;;;;;;;;;;;;;11.12;45.64;98362.94;5233513;27;34435;-90
2022/03/30 04:55:22;;;;;;;;;;;;;;;11.04;45.89;98363.19;5231236;27;34635;-90
2022/03/30 04:57:52;;;;;;;;;;;;;;;11.06;46.13;98358.81;5227706;27;34612;-91
2022/03/30 05:00:21;;;;;;;;;;;;;;;11.23;45.78;98359.03;5233827;27;34942;-91
2022/03/30 05:02:49;;;;;;;;;;;;;;;11.05;46.26;98363.16;5227352;27;34787;-91
2022/03/30 05:05:18;;;;;;;;;;;;;;;11.04;46.44;98368.38;5227620;27;33497;-90
2022/03/30 05:07:46;;;;;;;;;;;;;;;11.27;46.25;98375.34;5228620;27;34802;-90
2022/03/30 05:10:15;;;;;;;;;;;;;;;11.18;46.69;98376.53;5228248;27;34266;-90
2022/03/30 05:12:44;;;;;;;;;;;;;;;11.32;46.65;98379.44;5233701;27;34209;-90
2022/03/30 05:15:14;;;;;;;;;;;;;;;11.32;46.75;98383.81;5232214;27;33409;-91
2022/03/30 05:17:44;;;;;;;;;;;;;;;11.53;46.73;98382.16;5228079;27;34516;-90
2022/03/30 05:20:12;;;;;;;;;;;;;;;11.70;46.31;98391.91;5228365;27;34183;-89
2022/03/30 05:22:41;;;;;;;;;;;;;;;11.60;46.23;98395.75;5227417;27;34832;-90
2022/03/30 05:25:10;;;;;;;;;;;;;;;11.88;45.90;98391.22;5228363;27;33166;-90
2022/03/30 05:27:38;;;;;;;;;;;;;;;11.96;45.59;98393.53;5233267;27;34133;-90
2022/03/30 05:30:08;;;;;;;;;;;;;;;11.85;45.63;98395.66;5227630;27;34839;-90
2022/03/30 05:32:37;;;;;;;;;;;;;;;11.83;45.60;98390.50;5235276;27;33281;-90
2022/03/30 05:35:06;;;;;;;;;;;;;;;12.02;45.89;98389.84;5227898;27;34340;-91
2022/03/30 05:37:35;;;;;;;;;;;;;;;12.01;45.63;98391.59;5228365;27;34569;-90
2022/03/30 05:40:04;;;;;;;;;;;;;;;12.27;44.97;98403.50;5233071;27;33935;-90
2022/03/30 05:42:35;;;;;;;;;;;;;;;12.24;45.26;98398.44;5226794;27;34226;-90
2022/03/30 05:45:04;;;;;;;;;;;;;;;12.33;45.17;98392.03;5230852;27;33078;-90
2022/03/30 05:47:33;;;;;;;;;;;;;;;12.40;45.33;98388.28;5226809;27;33888;-91
2022/03/30 05:50:03;;;;;;;;;;;;;;;12.34;44.70;98391.97;5225643;27;33828;-91
2022/03/30 05:52:32;;;;;;;;;;;;;;;12.44;45.22;98387.22;5231157;27;34022;-91
2022/03/30 05:55:00;;;;;;;;;;;;;;;12.42;45.57;98383.84;5227132;27;33820;-90
2022/03/30 05:57:29;;;;;;;;;;;;;;;12.42;44.64;98388.19;5223929;27;34161;-91
2022/03/30 05:59:58;;;;;;;;;;;;;;;12.79;44.77;98387.50;5226219;27;34970;-90
2022/03/30 06:02:27;;;;;;;;;;;;;;;12.77;44.55;98394.53;5226064;27;33943;-91
2022/03/30 06:04:57;;;;;;;;;;;;;;;13.06;43.82;98393.25;5230863;27;33505;-91
2022/03/30 06:07:27;;;;;;;;;;;;;;;12.94;43.83;98393.78;5233920;27;33751;-90
2022/03/30 06:09:56;;;;;;;;;;;;;;;12.75;43.15;98398.94;5228876;27;34704;-91
2022/03/30 06:12:24;;;;;;;;;;;;;;;12.73;43.89;98396.44;5228264;27;34590;-91
2022/03/30 06:14:53;;;;;;;;;;;;;;;12.90;44.17;98395.69;5228039;27;32796;-91
2022/03/30 06:17:22;;;;;;;;;;;;;;;13.01;44.50;98398.66;5227781;27;34629;-91
2022/03/30 06:19:51;;;;;;;;;;;;;;;12.95;44.74;98390.25;5233617;27;34175;-90
2022/03/30 06:22:20;;;;;;;;;;;;;;;13.25;43.48;98388.09;5228260;27;34443;-90
2022/03/30 06:24:50;;;;;;;;;;;;;;;13.21;43.49;98397.78;5227804;27;33031;-92
2022/03/30 06:27:18;;;;;;;;;;;;;;;13.12;43.74;98392.13;5227812;27;34627;-90
2022/03/30 06:29:46;;;;;;;;;;;;;;;13.18;43.72;98397.09;5228276;27;34290;-91
2022/03/30 06:32:15;;;;;;;;;;;;;;;13.28;43.41;98393.16;5233568;27;34298;-91
2022/03/30 06:34:43;;;;;;;;;;;;;;;13.45;43.10;98393.25;5228311;27;33264;-91
2022/03/30 06:37:12;;;;;;;;;;;;;;;13.48;41.93;98397.47;5228167;27;33709;-91
2022/03/30 06:39:40;;;;;;;;;;;;;;;13.41;42.19;98396.94;5228527;27;33820;-90
2022/03/30 06:42:11;;;;;;;;;;;;;;;13.51;42.40;98405.16;5228346;27;34463;-91
2022/03/30 06:44:39;;;;;;;;;;;;;;;13.69;41.93;98413.06;5233994;27;33435;-91
2022/03/30 06:47:08;;;;;;;;;;;;;;;13.77;41.63;98411.78;5198393;27;786394;-90
2022/03/30 06:49:36;;;;;;;;;;;;;;;13.91;41.26;98402.47;5228211;27;35065;-90
2022/03/30 06:52:05;;;;;;;;;;;;;;;13.92;41.09;98409.34;5228087;27;34239;-90
2022/03/30 06:54:34;;;;;;;;;;;;;;;13.94;41.07;98399.69;5228207;27;33496;-90
2022/03/30 06:57:03;;;;;;;;;;;;;;;14.03;41.01;98407.09;5233422;27;34074;-91
2022/03/30 06:59:33;;;;;;;;;;;;;;;14.20;40.16;98411.50;5230782;27;34977;-90
2022/03/30 07:02:02;;;;;;;;;;;;;;;14.17;40.49;98404.66;5228174;27;34058;-90
2022/03/30 07:04:31;;;;;;;;;;;;;;;14.22;40.68;98412.28;5227889;27;33337;-91
2022/03/30 07:12:32;;;;;;;;;;;;;;;14.33;40.41;98407.37;5228295;27;34627;-90
2022/03/30 07:15:02;;;;;;;;;;;;;;;14.07;41.41;98406.88;5233615;27;33944;-90
2022/03/30 07:17:30;;;;;;;;;;;;;;;14.51;40.23;98410.84;5227236;27;33951;-91
2022/03/30 07:19:59;;;;;;;;;;;;;;;14.69;40.58;98409.09;5227915;27;33901;-90
2022/03/30 07:22:28;;;;;;;;;;;;;;;14.82;39.94;98407.56;5227705;27;33899;-91
2022/03/30 07:24:56;;;;;;;;;;;;;;;15.15;38.91;98409.38;5227821;27;33870;-91
2022/03/30 07:27:25;;;;;;;;;;;;;;;15.19;38.22;98410.88;5233458;27;33924;-91
2022/03/30 07:29:53;;;;;;;;;;;;;;;15.03;38.46;98404.75;5228084;27;33634;-90
2022/03/30 07:32:24;;;;;;;;;;;;;;;15.44;37.46;98402.59;5230145;27;34160;-91
2022/03/30 07:34:53;;;;;;;;;;;;;;;15.56;36.52;98388.88;5226586;27;32717;-91
2022/03/30 07:37:44;;;;;;;;;;;;;;;15.48;37.35;98395.44;5225816;27;34870;-91
2022/03/30 07:40:15;;;;;;;;;;;;;;;15.82;35.88;98393.63;5224235;27;32830;-91
2022/03/30 07:42:44;;;;;;;;;;;;;;;15.64;36.64;98391.06;5231738;27;34253;-91
2022/03/30 07:45:13;;;;;;;;;;;;;;;15.98;35.68;98384.00;5226861;27;33113;-91
2022/03/30 07:47:43;;;;;;;;;;;;;;;16.16;34.93;98387.34;5226955;27;34253;-91
2022/03/30 07:50:12;;;;;;;;;;;;;;;16.12;35.44;98389.28;5227940;27;33499;-91
2022/03/30 07:52:41;;;;;;;;;;;;;;;16.33;35.33;98399.44;5226574;27;34568;-91
2022/03/30 07:55:11;;;;;;;;;;;;;;;16.38;34.95;98398.28;5232531;27;33384;-90
2022/03/30 07:57:42;;;;;;;;;;;;;;;16.47;34.58;98396.88;5226843;27;33884;-91
2022/03/30 08:00:11;;;;;;;;;;;;;;;16.54;34.76;98402.63;5226734;27;34713;-91
2022/03/30 08:02:40;;;;;;;;;;;;;;;16.57;34.66;98403.25;5226819;27;33861;-91
2022/03/30 08:05:12;;;;;;;;;;;;;;;16.71;34.45;98404.25;5226511;27;33284;-90
2022/03/30 08:07:44;;;;;;;;;;;;;;;16.97;33.56;98402.75;5226573;27;34519;-91
2022/03/30 08:10:12;;;;;;;;;;;;;;;17.10;33.48;98406.28;5231101;27;35000;-92
2022/03/30 08:12:41;;;;;;;;;;;;;;;17.09;33.27;98403.78;5226411;27;34436;-92
2022/03/30 08:15:13;;;;;;;;;;;;;;;17.12;33.48;98404.44;5226425;27;34213;-91
2022/03/30 08:17:41;;;;;;;;;;;;;;;17.18;33.64;98411.94;5226216;27;33942;-91
2022/03/30 08:22:25;;;;;;;;;;;;;;;17.43;32.79;98410.44;5226231;27;33973;-91
2022/03/30 08:23:00;;;;;;;;;;;;;;;17.59;32.29;98412.94;5226694;27;33624;-92
2022/03/30 08:25:28;;;;;;;;;;;;;;;17.70;34.25;98411.31;5232290;27;33382;-90
2022/03/30 08:27:57;;;;;;;;;;;;;;;17.85;35.23;98416.56;5226571;27;33817;-91
2022/03/30 08:30:25;;;;;;;;;;;;;;;17.55;35.81;98411.44;5226005;27;34622;-90
2022/03/30 08:32:54;;;;;;;;;;;;;;;17.95;35.26;98412.41;5226567;27;34752;-91
2022/03/30 08:35:25;;;;;;;;;;;;;;;17.88;35.25;98409.38;5226267;27;33495;-91
2022/03/30 08:37:54;;;;;;;;;;;;;;;18.05;34.52;98400.41;5232444;27;35360;-90
2022/03/30 08:40:22;;;;;;;;;;;;;;;18.13;33.77;98408.63;5226219;27;33828;-90
2022/03/30 08:42:51;;;;;;;;;;;;;;;18.38;33.12;98414.91;5226733;27;34182;-91
2022/03/30 08:45:20;;;;;;;;;;;;;;;18.57;33.98;98414.53;5227210;27;32668;-91
2022/03/30 08:47:48;;;;;;;;;;;;;;;18.90;33.81;98423.78;5228788;27;34361;-91
2022/03/30 08:50:17;;;;;;;;;;;;;;;18.82;33.67;98428.69;5231313;27;33956;-91
2022/03/30 08:52:49;;;;;;;;;;;;;;;19.05;32.95;98416.63;5226580;27;33921;-91
2022/03/30 08:55:18;;;;;;;;;;;;;;;18.99;33.25;98425.75;5227010;27;32562;-91
2022/03/30 08:57:48;;;;;;;;;;;;;;;19.15;32.74;98430.81;5226374;27;36000;-91
2022/03/30 09:00:17;;;;;;;;;;;;;;;19.18;32.95;98426.19;5225719;27;34963;-91
2022/03/30 09:02:47;;;;;;;;;;;;;;;19.14;32.75;98424.72;5231745;27;34067;-90
2022/03/30 09:05:18;;;;;;;;;;;;;;;19.14;32.95;98422.09;5230714;27;34297;-91
2022/03/30 09:07:49;;;;;;;;;;;;;;;19.26;33.26;98416.94;5226650;27;34811;-91
2022/03/30 09:10:19;;;;;;;;;;;;;;;19.44;33.27;98410.38;5207017;27;33829;-91
2022/03/30 09:12:49;;;;;;;;;;;;;;;19.51;32.93;98413.44;5226308;27;33816;-90
2022/03/30 09:15:19;;;;;;;;;;;;;;;19.69;31.94;98411.31;5226595;27;33944;-90
2022/03/30 09:17:58;;;;;;;;;;;;;;;19.37;32.26;98409.13;5232379;27;33578;-91
2022/03/30 09:20:34;;;;;;;;;;;;;;;19.25;32.07;98412.62;5228352;27;35188;-91
2022/03/30 09:23:04;;;;;;;;;;;;;;;19.37;33.07;98409.97;5226624;27;34364;-91
2022/03/30 09:25:49;;;;;;;;;;;;;;;19.52;32.82;98404.59;5226315;27;33579;-91
2022/03/30 09:28:19;;;;;;;;;;;;;;;19.52;32.43;98405.44;5226610;27;33610;-91
2022/03/30 09:30:48;;;;;;;;;;;;;;;19.77;33.32;98414.25;5225908;27;34265;-91
2022/03/30 09:33:17;;;;;;;;;;;;;;;19.21;33.38;98405.88;5231922;27;34142;-92
2022/03/30 09:35:46;;;;;;;;;;;;;;;19.55;33.14;98399.97;5226969;27;33118;-92
2022/03/30 09:38:17;;;;;;;;;;;;;;;19.51;33.59;98403.75;5225237;27;33409;-92
2022/03/30 09:40:47;;;;;;;;;;;;;;;19.47;33.24;98406.69;5226255;27;35077;-92
2022/03/30 09:43:17;;;;;;;;;;;;;;;19.67;33.67;98405.28;5226779;27;34377;-91
2022/03/30 09:45:47;;;;;;;;;;;;;;;19.42;33.68;98403.56;5231132;27;33861;-93
2022/03/30 09:48:17;;;;;;;;;;;;;;;19.32;33.53;98392.84;5232142;27;35054;-92
2022/03/30 09:50:46;;;;;;;;;;;;;;;19.42;33.51;98393.87;5206814;27;33248;-91
2022/03/30 09:53:17;;;;;;;;;;;;;;;19.46;33.28;98402.41;5226947;27;34573;-92
2022/03/30 09:55:55;;;;;;;;;;;;;;;19.52;33.70;98394.06;5226323;27;33335;-91
2022/03/30 09:58:25;;;;;;;;;;;;;;;19.60;32.85;98384.69;5226198;27;34177;-91
2022/03/30 10:01:08;;;;;;;;;;;;;;;19.51;32.99;98389.75;5232638;27;34097;-92
2022/03/30 10:03:41;;;;;;;;;;;;;;;19.47;33.35;98385.66;5238349;27;35098;-92
2022/03/30 10:06:10;;;;;;;;;;;;;;;19.47;33.86;98380.41;5239603;27;34303;-92
2022/03/30 10:08:41;;;;;;;;;;;;;;;19.47;33.47;98380.41;5226749;27;33991;-91
2022/03/30 10:11:10;;;;;;;;;;;;;;;19.53;33.92;98380.81;5240072;27;34295;-91
2022/03/30 10:13:39;;;;;;;;;;;;;;;19.73;33.69;98370.69;5227600;27;35823;-91
2022/03/30 10:16:28;;;;;;;;;;;;;;;19.89;33.22;98379.16;5226932;27;33554;-92
2022/03/30 10:18:58;;;;;;;;;;;;;;;19.98;32.91;98367.97;5235319;27;33717;-92
2022/03/30 10:21:27;;;;;;;;;;;;;;;19.72;32.90;98376.91;5224107;27;33145;-91
2022/03/30 10:24:14;;;;;;;;;;;;;;;19.73;32.85;98376.78;5226934;27;34008;-91
2022/03/30 10:26:47;;;;;;;;;;;;;;;19.35;34.11;98374.22;5226583;27;33567;-92
2022/03/30 10:29:16;;;;;;;;;;;;;;;19.39;34.05;98359.91;5226449;27;33761;-91
2022/03/30 10:32:00;;;;;;;;;;;;;;;19.71;34.50;98365.53;5230152;27;33332;-92
2022/03/30 10:34:28;;;;;;;;;;;;;;;19.72;34.25;98364.59;5233556;27;34561;-91
2022/03/30 10:37:01;;;;;;;;;;;;;;;19.63;33.85;98357.31;5236607;27;34095;-91
2022/03/30 10:39:29;;;;;;;;;;;;;;;19.83;34.05;98361.19;5226595;27;35288;-91
2022/03/30 10:42:19;;;;;;;;;;;;;;;19.86;33.01;98360.97;5227753;27;34327;-90
2022/03/30 10:44:49;;;;;;;;;;;;;;;19.60;33.15;98347.03;5225658;27;34084;-92
2022/03/30 10:47:18;;;;;;;;;;;;;;;19.69;33.49;98345.53;5233355;27;33144;-90
2022/03/30 10:49:48;;;;;;;;;;;;;;;19.72;32.70;98345.34;5228336;27;33825;-90
2022/03/30 10:52:31;;;;;;;;;;;;;;;19.61;32.11;98346.91;5229139;27;34283;-90
2022/03/30 10:55:19;;;;;;;;;;;;;;;19.55;32.22;98336.00;5228702;27;34872;-91
2022/03/30 10:57:49;;;;;;;;;;;;;;;19.77;32.87;98336.16;5228968;27;33283;-92
2022/03/30 11:00:19;;;;;;;;;;;;;;;19.82;32.14;98333.19;5228531;27;34239;-91
2022/03/30 11:02:47;;;;;;;;;;;;;;;19.86;32.41;98342.56;5233767;27;34281;-92
2022/03/30 11:05:35;;;;;;;;;;;;;;;19.97;33.36;98337.31;5220210;27;35078;-91
2022/03/30 11:08:26;;;;;;;;;;;;;;;19.80;33.77;98324.56;5234140;27;32010;-91
2022/03/30 11:10:55;;;;;;;;;;;;;;;19.81;33.62;98327.09;5233644;27;34994;-92
2022/03/30 11:13:25;;;;;;;;;;;;;;;19.89;33.55;98323.06;5230408;27;33633;-91
2022/03/30 11:16:06;;;;;;;;;;;;;;;19.98;32.97;98323.22;5228552;27;35074;-91
2022/03/30 11:18:35;;;;;;;;;;;;;;;20.22;32.88;98319.72;5234088;27;33861;-93
2022/03/30 11:21:19;;;;;;;;;;;;;;;20.23;32.99;98310.88;5233246;27;34452;-92
2022/03/30 11:24:02;;;;;;;;;;;;;;;19.92;32.82;98320.19;5228713;27;33757;-91
2022/03/30 11:26:47;;;;;;;;;;;;;;;20.02;32.96;98308.87;5228230;27;34641;-92
2022/03/30 11:29:34;;;;;;;;;;;;;;;20.09;32.67;98303.16;5228029;27;33319;-91
2022/03/30 11:32:07;;;;;;;;;;;;;;;20.11;32.81;98306.53;5227315;27;34131;-91
2022/03/30 11:34:37;;;;;;;;;;;;;;;20.18;32.51;98297.22;5228060;27;34885;-91
2022/03/30 11:37:05;;;;;;;;;;;;;;;20.41;32.26;98298.94;5227901;27;34359;-92
2022/03/30 11:39:34;;;;;;;;;;;;;;;20.46;32.37;98294.19;5233952;27;33131;-91
2022/03/30 11:42:03;;;;;;;;;;;;;;;20.37;31.44;98292.25;5227670;27;35037;-91
2022/03/30 11:47:19;;;;;;;;;;;;;;;20.31;31.82;98282.16;5226533;27;34253;-91
2022/03/30 11:49:51;;;;;;;;;;;;;;;20.52;31.75;98278.84;5228677;27;33280;-91
2022/03/30 11:52:24;;;;;;;;;;;;;;;20.39;31.33;98274.53;5228607;27;33881;-90
2022/03/30 11:55:00;;;;;;;;;;;;;;;20.50;31.96;98278.13;5233314;27;34051;-91
2022/03/30 11:57:29;;;;;;;;;;;;;;;20.67;31.40;98273.25;5227678;27;33856;-92
2022/03/30 11:59:58;;;;;;;;;;;;;;;20.58;31.72;98273.13;5227667;27;32239;-91
2022/03/30 12:02:27;;;;;;;;;;;;;;;20.65;31.48;98269.91;5226416;27;34211;-91
2022/03/30 12:04:57;;;;;;;;;;;;;;;20.46;31.05;98274.88;5226952;27;33499;-91
2022/03/30 12:07:25;;;;;;;;;;;;;;;20.17;31.88;98269.19;5232297;27;34211;-91
2022/03/30 12:09:54;;;;;;;;;;;;;;;20.43;31.59;98261.94;5226574;27;33525;-91
2022/03/30 12:12:26;;;;;;;;;;;;;;;20.24;32.12;98254.59;5231392;27;34001;-91
2022/03/30 12:14:58;;;;;;;;;;;;;;;20.33;31.83;98259.19;5230191;27;34302;-91
2022/03/30 12:17:32;;;;;;;;;;;;;;;20.04;31.94;98253.47;5226811;27;34757;-91
2022/03/30 12:20:01;;;;;;;;;;;;;;;19.97;31.83;98252.25;5227486;27;32853;-92
2022/03/30 12:22:30;;;;;;;;;;;;;;;19.95;31.88;98249.72;5232460;27;34733;-91
2022/03/30 12:24:59;;;;;;;;;;;;;;;20.08;32.06;98246.19;5227692;27;33928;-91
2022/03/30 12:27:27;;;;;;;;;;;;;;;20.04;31.63;98245.59;5230026;27;34213;-91
2022/03/30 12:29:58;;;;;;;;;;;;;;;19.73;32.66;98247.03;5228111;27;34074;-90
2022/03/30 12:32:26;;;;;;;;;;;;;;;20.01;32.13;98237.94;5227403;27;33863;-92
2022/03/30 12:35:07;;;;;;;;;;;;;;;19.67;32.16;98229.00;5234096;27;34712;-92
2022/03/30 12:37:36;;;;;;;;;;;;;;;19.57;32.44;98240.25;5228817;27;34057;-91
2022/03/30 12:40:08;;;;;;;;;;;;;;;19.80;32.39;98230.66;5228824;27;34130;-92
2022/03/30 12:42:37;;;;;;;;;;;;;;;19.81;31.87;98228.88;5228188;27;33918;-91
2022/03/30 12:45:10;;;;;;;;;;;;;;;19.71;31.76;98230.50;5233163;27;34265;-91
2022/03/30 12:47:39;;;;;;;;;;;;;;;19.48;31.76;98221.66;5235967;27;34401;-91
2022/03/30 12:50:10;;;;;;;;;;;;;;;19.47;31.99;98218.16;5234175;27;34212;-91
2022/03/30 12:52:39;;;;;;;;;;;;;;;19.48;31.52;98213.78;5227092;27;34139;-91
2022/03/30 12:55:12;;;;;;;;;;;;;;;19.12;32.14;98211.06;5227244;27;34290;-91
2022/03/30 12:57:51;;;;;;;;;;;;;;;19.18;32.28;98200.13;5227796;27;34785;-91
2022/03/30 13:00:20;;;;;;;;;;;;;;;19.25;32.47;98197.03;5228250;27;34085;-92
2022/03/30 13:02:55;;;;;;;;;;;;;;;19.54;32.14;98198.34;5233403;27;34269;-91
2022/03/30 13:05:27;;;;;;;;;;;;;;;19.58;32.03;98197.19;5233192;27;33792;-91
2022/03/30 13:07:57;;;;;;;;;;;;;;;19.40;32.59;98193.25;5227755;27;34274;-91
2022/03/30 13:10:25;;;;;;;;;;;;;;;19.44;33.16;98192.09;5228175;27;33956;-91
2022/03/30 13:12:59;;;;;;;;;;;;;;;19.28;33.02;98187.13;5228264;27;34513;-90
2022/03/30 13:15:33;;;;;;;;;;;;;;;19.36;33.10;98173.44;5231335;27;34097;-91